Time;durP1;ratioP1;P1;durP2;ratioP2;P2;SDS_P1;SDS_P2;PMS_P1;PMS_P2;Temp;Humidity;BMP_temperature;BMP_pressure;BME280_temperature;BME280_humidity;BME280_pressure;Samples;Min_cycle;Max_cycle;Signal;HPM_P1;HPM_P2
2022/01/31 00:01:04;;;;;;;;;14.50;10.00;;;;;10.11;49.06;101849.25;5098061;27;46496;-72
2022/01/31 00:03:34;;;;;;;;;10.00;9.00;;;;;10.44;49.52;101902.31;5096160;27;45412;-71
2022/01/31 00:06:34;;;;;;;;;11.00;8.50;;;;;10.29;49.54;101881.94;5095455;27;46171;-71
2022/01/31 00:09:13;;;;;;;;;;;;;;;;;;;;;
2022/01/31 00:12:27;;;;;;;;;8.75;7.50;;;;;9.92;49.90;101799.97;5102640;27;68467;-72
2022/01/31 00:15:10;;;;;;;;;11.00;8.25;;;;;10.42;49.70;101883.97;5096308;27;45401;-69
2022/01/31 00:17:38;;;;;;;;;11.75;9.25;;;;;10.41;50.32;101882.19;5095783;27;47263;-72
2022/01/31 00:20:05;;;;;;;;;14.75;9.75;;;;;9.90;50.34;101779.00;5097470;27;45666;-70
2022/01/31 00:22:31;;;;;;;;;17.25;10.25;;;;;10.42;49.73;101852.56;5101382;27;45552;-70
2022/01/31 00:25:02;;;;;;;;;10.25;9.00;;;;;10.16;50.30;101799.63;5103435;27;45496;-71
2022/01/31 00:28:13;;;;;;;;;;;;;;;;;;;;;
2022/01/31 00:31:00;;;;;;;;;11.00;10.25;;;;;10.17;50.31;101810.09;5098945;27;72726;-71
2022/01/31 00:33:29;;;;;;;;;9.25;8.50;;;;;10.31;50.03;101843.59;5097077;27;45436;-72
2022/01/31 00:35:55;;;;;;;;;9.75;8.75;;;;;10.26;49.85;101829.47;5098410;27;45999;-70
2022/01/31 00:38:24;;;;;;;;;12.50;8.50;;;;;10.03;49.71;101806.31;5101732;27;46442;-70
2022/01/31 00:40:50;;;;;;;;;7.75;7.00;;;;;10.09;49.97;101813.44;5103465;27;45333;-70
2022/01/31 00:43:20;;;;;;;;;8.00;7.75;;;;;10.21;50.26;101833.75;5100637;27;45549;-70
2022/01/31 00:46:02;;;;;;;;;7.00;6.00;;;;;9.96;50.37;101807.03;5098679;27;45462;-72
2022/01/31 00:48:41;;;;;;;;;6.00;6.00;;;;;10.17;50.51;101843.25;5094863;27;45876;-71
2022/01/31 00:51:09;;;;;;;;;9.75;5.00;;;;;10.13;49.98;101846.66;5094104;27;45523;-70
2022/01/31 00:53:35;;;;;;;;;10.00;5.00;;;;;10.15;50.39;101839.72;5097363;27;45458;-70
2022/01/31 00:56:01;;;;;;;;;6.75;4.25;;;;;9.77;50.23;101772.63;5096867;27;45352;-72
2022/01/31 00:58:37;;;;;;;;;6.75;5.75;;;;;10.17;50.32;101827.53;5100030;27;46296;-71
2022/01/31 01:01:02;;;;;;;;;11.25;5.00;;;;;9.79;50.11;101771.78;5100633;27;46006;-69
2022/01/31 01:03:52;;;;;;;;;9.50;5.00;;;;;10.08;50.00;101807.28;5101498;27;45312;-71
2022/01/31 01:06:38;;;;;;;;;5.00;5.00;;;;;10.22;50.02;101802.34;5097971;27;45428;-72
2022/01/31 01:09:04;;;;;;;;;8.25;4.50;;;;;10.23;50.04;101793.66;5096145;27;46267;-70
2022/01/31 01:12:27;;;;;;;;;8.00;5.00;;;;;10.18;50.02;101777.84;5101502;27;45472;-70
2022/01/31 01:15:04;;;;;;;;;5.00;3.50;;;;;10.19;50.09;101790.06;5098837;27;45440;-70
2022/01/31 01:17:30;;;;;;;;;7.00;5.75;;;;;9.99;50.66;101767.84;5098679;27;45418;-69
2022/01/31 01:19:56;;;;;;;;;8.25;5.00;;;;;10.15;50.18;101785.63;5098609;27;45789;-71
2022/01/31 01:22:22;;;;;;;;;5.50;4.75;;;;;10.05;50.43;101751.38;5096546;27;45262;-69
2022/01/31 01:24:48;;;;;;;;;10.00;4.50;;;;;9.57;50.44;101671.91;5096319;27;45439;-69
2022/01/31 01:27:18;;;;;;;;;6.25;4.00;;;;;9.59;50.50;101680.69;5095979;27;45269;-69
2022/01/31 01:29:45;;;;;;;;;5.25;5.00;;;;;10.11;50.61;101764.59;5094537;27;46622;-69
2022/01/31 01:32:12;;;;;;;;;2.00;1.00;;;;;10.08;50.60;101757.53;5094882;27;45892;-70
2022/01/31 01:34:37;;;;;;;;;5.25;3.75;;;;;9.57;51.15;101637.03;5095758;27;45307;-70
2022/01/31 01:37:03;;;;;;;;;2.25;2.00;;;;;9.95;51.27;101716.28;5095780;27;45478;-69
2022/01/31 01:39:30;;;;;;;;;5.00;3.75;;;;;9.69;51.30;101666.03;5094784;27;46048;-70
2022/01/31 01:41:56;;;;;;;;;5.75;4.50;;;;;9.96;51.43;101695.38;5095114;27;45425;-70
2022/01/31 01:44:48;;;;;;;;;3.00;3.00;;;;;9.97;51.48;101699.75;5111527;27;45431;-72
2022/01/31 01:47:20;;;;;;;;;6.00;4.25;;;;;9.41;51.88;101610.53;5097280;27;45391;-70
2022/01/31 01:49:46;;;;;;;;;6.50;4.00;;;;;9.57;52.02;101643.13;5096727;27;45553;-71
2022/01/31 01:52:12;;;;;;;;;9.25;4.50;;;;;9.97;52.40;101693.66;5094955;27;45406;-70
2022/01/31 01:54:38;;;;;;;;;4.75;4.00;;;;;9.33;52.17;101594.72;5094854;27;45423;-70
2022/01/31 01:57:04;;;;;;;;;6.00;3.75;;;;;9.94;52.43;101696.19;5095316;27;45708;-73
2022/01/31 01:59:33;;;;;;;;;5.25;3.75;;;;;9.72;52.44;101663.47;5095745;27;46047;-71
2022/01/31 02:02:01;;;;;;;;;4.50;3.25;;;;;9.97;52.71;101711.97;5100361;27;45725;-72
2022/01/31 02:04:28;;;;;;;;;6.25;3.75;;;;;9.95;53.14;101714.56;5100992;27;45538;-71
2022/01/31 02:06:54;;;;;;;;;5.00;3.50;;;;;9.95;53.35;101711.06;5100805;27;45586;-70
2022/01/31 02:09:22;;;;;;;;;4.75;4.00;;;;;9.87;53.11;101686.44;5095077;27;46365;-69
2022/01/31 02:11:49;;;;;;;;;4.50;4.50;;;;;9.41;53.51;101604.44;5094492;27;45505;-72
2022/01/31 02:14:14;;;;;;;;;5.00;2.00;;;;;9.67;53.55;101633.75;5094768;27;45412;-71
2022/01/31 02:16:40;;;;;;;;;4.00;3.00;;;;;9.82;53.96;101669.78;5095053;27;45849;-70
2022/01/31 02:19:08;;;;;;;;;6.00;3.00;;;;;9.91;53.74;101683.94;5094533;27;45435;-69
2022/01/31 02:21:33;;;;;;;;;7.50;3.75;;;;;9.80;54.13;101661.91;5094893;27;45291;-70
2022/01/31 02:24:00;;;;;;;;;5.75;3.50;;;;;9.47;54.61;101597.63;5094828;27;46024;-70
2022/01/31 02:26:26;;;;;;;;;8.00;3.00;;;;;9.82;54.69;101649.72;5099039;27;45289;-71
2022/01/31 02:28:52;;;;;;;;;2.75;2.25;;;;;9.91;55.27;101663.00;5096771;27;46259;-70
2022/01/31 02:31:21;;;;;;;;;4.50;2.75;;;;;9.89;55.07;101664.69;5094236;27;45429;-73
2022/01/31 02:33:46;;;;;;;;;4.50;3.50;;;;;9.51;55.46;101588.06;5094481;27;45519;-69
2022/01/31 02:36:13;;;;;;;;;7.50;5.25;;;;;9.61;55.82;101591.75;5093129;27;45459;-71
2022/01/31 02:38:39;;;;;;;;;3.75;3.00;;;;;9.69;55.72;101608.50;5094438;27;45911;-71
2022/01/31 02:41:04;;;;;;;;;7.50;3.00;;;;;9.33;55.33;101542.41;5096951;27;45522;-70
2022/01/31 02:43:33;;;;;;;;;6.00;2.25;;;;;9.84;55.96;101640.19;5099755;27;45352;-69
2022/01/31 02:46:00;;;;;;;;;5.00;3.00;;;;;9.88;55.78;101639.38;5100355;27;45827;-70
2022/01/31 02:48:29;;;;;;;;;5.75;4.00;;;;;9.58;55.98;101574.28;5097785;27;46105;-72
2022/01/31 02:50:58;;;;;;;;;3.50;3.00;;;;;9.70;56.14;101587.56;5097814;27;45469;-71
2022/01/31 02:53:30;;;;;;;;;6.50;4.25;;;;;9.72;56.04;101572.81;5114204;27;45470;-71
2022/01/31 02:55:58;;;;;;;;;6.25;4.00;;;;;9.89;56.35;101616.72;5100015;27;45352;-71
2022/01/31 02:58:26;;;;;;;;;5.50;3.00;;;;;9.36;55.96;101501.50;5102141;27;46184;-70
2022/01/31 03:00:54;;;;;;;;;3.00;3.00;;;;;9.95;56.57;101616.84;5097538;27;45471;-72
2022/01/31 03:03:20;;;;;;;;;3.00;3.00;;;;;9.76;56.48;101577.25;5097924;27;45602;-71
2022/01/31 03:05:46;;;;;;;;;2.75;2.00;;;;;9.97;57.35;101595.09;5098896;27;45704;-70
2022/01/31 03:08:12;;;;;;;;;2.25;2.00;;;;;9.98;57.47;101577.63;5097161;27;46411;-70
2022/01/31 03:10:38;;;;;;;;;7.00;2.00;;;;;9.97;58.59;101597.69;5097694;27;45396;-70
2022/01/31 03:13:04;;;;;;;;;2.00;1.00;;;;;9.77;58.54;101531.94;5100941;27;46211;-72
2022/01/31 03:15:30;;;;;;;;;2.00;2.00;;;;;9.82;58.84;101537.22;5102865;27;45341;-70
2022/01/31 03:17:57;;;;;;;;;2.75;1.75;;;;;9.92;59.18;101559.22;5099187;27;46516;-70
2022/01/31 03:20:27;;;;;;;;;2.00;1.00;;;;;9.79;58.62;101537.16;5115304;27;45330;-70
2022/01/31 03:22:53;;;;;;;;;2.25;1.25;;;;;9.96;58.92;101568.88;5099384;27;45320;-70
2022/01/31 03:25:20;;;;;;;;;2.00;2.00;;;;;9.93;59.83;101563.59;5114688;27;45503;-73
2022/01/31 03:27:51;;;;;;;;;3.00;1.50;;;;;9.80;60.04;101543.28;5098373;27;45550;-70
2022/01/31 03:30:20;;;;;;;;;3.75;0.50;;;;;9.88;60.24;101546.94;5098056;27;45381;-70
2022/01/31 03:32:50;;;;;;;;;4.00;1.50;;;;;9.87;60.21;101563.47;5097911;27;45431;-70
2022/01/31 03:35:16;;;;;;;;;3.25;2.75;;;;;9.96;60.51;101577.59;5098947;27;45231;-72
2022/01/31 03:37:43;;;;;;;;;3.50;2.50;;;;;10.00;60.22;101567.22;5101842;27;46242;-71
2022/01/31 03:40:12;;;;;;;;;2.00;1.00;;;;;9.80;60.57;101538.94;5099011;27;45933;-71
2022/01/31 03:42:38;;;;;;;;;3.00;1.50;;;;;10.01;60.27;101553.25;5097327;27;45349;-71
2022/01/31 03:45:07;;;;;;;;;3.00;1.25;;;;;10.10;60.34;101558.66;5096664;27;45400;-71
2022/01/31 03:47:33;;;;;;;;;2.25;1.00;;;;;10.12;60.98;101543.84;5097459;27;45381;-72
2022/01/31 03:49:58;;;;;;;;;1.75;1.50;;;;;10.08;60.95;101521.97;5097227;27;45494;-72
2022/01/31 03:52:27;;;;;;;;;1.00;1.00;;;;;9.90;61.13;101500.75;5096599;27;45489;-70
2022/01/31 03:54:56;;;;;;;;;1.25;1.25;;;;;10.12;61.35;101542.13;5099927;27;45438;-71
2022/01/31 03:57:21;;;;;;;;;2.00;1.00;;;;;10.13;61.29;101524.66;5101121;27;45568;-71
2022/01/31 03:59:47;;;;;;;;;2.00;1.50;;;;;9.82;61.72;101460.47;5097289;27;45798;-69
2022/01/31 04:02:12;;;;;;;;;2.25;1.25;;;;;10.13;61.98;101522.03;5096463;27;45442;-70
2022/01/31 04:04:38;;;;;;;;;3.75;2.25;;;;;9.59;62.07;101429.59;5097053;27;45503;-70
2022/01/31 04:07:04;;;;;;;;;2.75;1.25;;;;;10.11;62.25;101550.84;5096843;27;46090;-69
2022/01/31 04:09:29;;;;;;;;;1.00;0.50;;;;;10.15;62.72;101541.28;5096735;27;45624;-70
2022/01/31 04:11:55;;;;;;;;;2.00;1.00;;;;;10.17;62.78;101548.31;5096979;27;45544;-71
2022/01/31 04:14:25;;;;;;;;;3.75;1.25;;;;;9.98;62.59;101536.63;5096865;27;45522;-69
2022/01/31 04:16:53;;;;;;;;;1.75;1.75;;;;;9.98;63.39;101538.38;5096670;27;45513;-70
2022/01/31 04:19:18;;;;;;;;;5.50;1.25;;;;;10.03;63.29;101534.09;5097020;27;45631;-72
2022/01/31 04:21:44;;;;;;;;;2.00;1.25;;;;;10.15;63.38;101539.53;5112404;27;45501;-70
2022/01/31 04:24:18;;;;;;;;;2.00;1.00;;;;;9.94;63.73;101519.16;5099639;27;45403;-69
2022/01/31 04:26:54;;;;;;;;;1.75;1.50;;;;;10.08;63.57;101536.78;5101001;27;46293;-70
2022/01/31 04:29:31;;;;;;;;;2.75;1.00;;;;;10.12;63.84;101555.19;5096737;27;45330;-70
2022/01/31 04:31:57;;;;;;;;;1.00;0.00;;;;;9.88;63.86;101510.31;5096509;27;45467;-70
2022/01/31 04:34:24;;;;;;;;;2.25;1.00;;;;;9.91;64.18;101513.84;5097268;27;45427;-71
2022/01/31 04:36:50;;;;;;;;;2.25;1.00;;;;;10.10;63.97;101553.41;5096566;27;46108;-72
2022/01/31 04:39:19;;;;;;;;;1.00;1.00;;;;;10.02;64.21;101536.72;5095895;27;45789;-70
2022/01/31 04:41:47;;;;;;;;;1.00;1.00;;;;;10.17;64.01;101571.84;5099812;27;45419;-71
2022/01/31 04:44:13;;;;;;;;;3.00;2.00;;;;;10.22;63.93;101566.69;5096243;27;45345;-70
2022/01/31 04:46:40;;;;;;;;;3.25;1.00;;;;;10.22;63.79;101551.00;5096697;27;45456;-71
2022/01/31 04:49:07;;;;;;;;;4.25;1.00;;;;;10.11;63.93;101534.25;5096235;27;45347;-71
2022/01/31 04:51:33;;;;;;;;;3.00;1.00;;;;;9.84;63.74;101477.94;5095077;27;45477;-70
2022/01/31 04:53:58;;;;;;;;;4.50;3.00;;;;;9.69;63.83;101441.09;5095759;27;45689;-70
2022/01/31 04:56:24;;;;;;;;;1.00;1.00;;;;;10.18;63.86;101509.94;5096085;27;45402;-71
2022/01/31 04:58:50;;;;;;;;;4.25;2.00;;;;;10.00;63.66;101492.19;5096619;27;45312;-71
2022/01/31 05:01:16;;;;;;;;;2.50;2.00;;;;;10.27;64.08;101544.09;5096688;27;45402;-72
2022/01/31 05:03:44;;;;;;;;;2.50;0.00;;;;;10.27;63.70;101544.09;5095723;27;45479;-70
2022/01/31 05:06:13;;;;;;;;;4.00;2.00;;;;;10.26;63.77;101546.72;5115877;27;47791;-71
2022/01/31 05:08:39;;;;;;;;;2.75;1.25;;;;;10.09;63.40;101534.22;5099830;27;45372;-71
2022/01/31 05:11:08;;;;;;;;;1.00;1.00;;;;;10.16;63.40;101536.09;5112053;27;45392;-72
2022/01/31 05:13:37;;;;;;;;;2.50;1.00;;;;;10.28;62.50;101555.47;5095781;27;45728;-71
2022/01/31 05:16:15;;;;;;;;;1.00;1.00;;;;;10.26;62.26;101549.31;5095826;27;46542;-69
2022/01/31 05:18:41;;;;;;;;;1.50;1.50;;;;;10.12;61.09;101526.41;5095843;27;45674;-70
2022/01/31 05:21:08;;;;;;;;;2.50;2.25;;;;;10.28;60.07;101565.94;5099920;27;45391;-72
2022/01/31 05:23:34;;;;;;;;;2.00;2.00;;;;;9.90;59.88;101490.28;5100333;27;45432;-72
2022/01/31 05:26:01;;;;;;;;;1.25;1.00;;;;;10.33;59.71;101566.94;5100064;27;46324;-73
2022/01/31 05:28:26;;;;;;;;;1.00;1.00;;;;;10.37;59.43;101560.91;5097712;27;45833;-70
2022/01/31 05:30:52;;;;;;;;;3.00;1.00;;;;;9.87;59.47;101480.66;5096115;27;45424;-73
2022/01/31 05:33:18;;;;;;;;;2.00;1.00;;;;;9.38;58.86;101410.91;5095776;27;45790;-71
2022/01/31 05:35:45;;;;;;;;;2.00;1.00;;;;;9.99;59.18;101503.53;5094076;27;46438;-72
2022/01/31 05:38:11;;;;;;;;;7.00;1.00;;;;;10.44;58.46;101583.69;5095303;27;45635;-71
2022/01/31 05:40:37;;;;;;;;;3.00;1.00;;;;;10.45;58.68;101577.59;5095359;27;45529;-71
2022/01/31 05:43:03;;;;;;;;;2.00;1.50;;;;;10.39;58.02;101581.00;5111423;27;45467;-70
2022/01/31 05:45:29;;;;;;;;;2.00;1.00;;;;;10.42;57.93;101588.03;5095300;27;45593;-71
2022/01/31 05:47:55;;;;;;;;;1.25;1.00;;;;;10.38;57.06;101571.38;5095306;27;45361;-71
2022/01/31 05:50:22;;;;;;;;;1.25;1.00;;;;;10.38;56.80;101575.75;5095412;27;45612;-71
2022/01/31 05:52:48;;;;;;;;;3.00;1.00;;;;;10.37;56.69;101587.09;5095555;27;45482;-70
2022/01/31 05:55:14;;;;;;;;;0.75;0.50;;;;;10.18;56.26;101555.31;5094947;27;45496;-72
2022/01/31 05:57:42;;;;;;;;;1.00;1.00;;;;;9.90;56.26;101522.56;5095505;27;45763;-71
2022/01/31 06:00:08;;;;;;;;;1.00;1.00;;;;;10.33;55.79;101585.25;5096447;27;45370;-71
2022/01/31 06:02:35;;;;;;;;;2.00;0.50;;;;;10.37;56.06;101569.63;5096241;27;45489;-71
2022/01/31 06:05:02;;;;;;;;;3.00;1.00;;;;;10.34;56.16;101564.31;5096800;27;46199;-69
2022/01/31 06:07:28;;;;;;;;;1.25;0.25;;;;;10.35;55.34;101565.22;5096147;27;45578;-70
2022/01/31 06:09:54;;;;;;;;;2.75;1.00;;;;;10.06;55.64;101525.41;5111457;27;45473;-71
2022/01/31 06:12:20;;;;;;;;;1.00;1.00;;;;;10.35;55.34;101589.66;5096785;27;45360;-72
2022/01/31 06:14:45;;;;;;;;;5.00;1.50;;;;;10.12;55.30;101556.94;5097339;27;45347;-71
2022/01/31 06:17:11;;;;;;;;;2.75;1.00;;;;;10.25;55.25;101578.97;5098494;27;45287;-72
2022/01/31 06:19:37;;;;;;;;;0.75;0.75;;;;;10.11;54.78;101566.53;5101168;27;45435;-71
2022/01/31 06:22:06;;;;;;;;;5.00;1.25;;;;;9.90;55.12;101545.22;5100004;27;45535;-71
2022/01/31 06:24:32;;;;;;;;;1.25;1.25;;;;;9.86;55.09;101543.41;5096512;27;45332;-71
2022/01/31 06:26:59;;;;;;;;;3.50;1.00;;;;;10.26;54.91;101607.81;5096546;27;45294;-70
2022/01/31 06:29:26;;;;;;;;;4.50;2.00;;;;;9.70;54.77;101506.47;5096627;27;45295;-72
2022/01/31 06:31:52;;;;;;;;;4.75;1.00;;;;;10.15;54.74;101586.66;5097023;27;45518;-72
2022/01/31 06:34:26;;;;;;;;;1.50;1.50;;;;;10.23;54.69;101592.06;5097059;27;45639;-71
2022/01/31 06:36:52;;;;;;;;;2.75;1.00;;;;;10.12;54.62;101586.59;5095756;27;45432;-71
2022/01/31 06:39:21;;;;;;;;;1.00;1.00;;;;;10.04;54.35;101564.66;5096217;27;45342;-71
2022/01/31 06:41:47;;;;;;;;;1.00;1.00;;;;;10.11;54.23;101579.63;5095317;27;45830;-70
2022/01/31 06:44:13;;;;;;;;;6.00;2.00;;;;;10.21;54.09;101582.41;5094234;27;45461;-70
2022/01/31 06:46:39;;;;;;;;;0.25;0.25;;;;;10.18;53.95;101596.31;5113560;27;45528;-72
2022/01/31 06:49:06;;;;;;;;;4.00;1.00;;;;;10.21;53.98;101588.53;5094934;27;45354;-71
2022/01/31 06:51:31;;;;;;;;;2.00;1.00;;;;;10.20;54.02;101594.59;5094761;27;45517;-73
2022/01/31 06:53:59;;;;;;;;;1.75;1.50;;;;;9.69;53.66;101514.31;5096629;27;46313;-71
2022/01/31 06:56:29;;;;;;;;;2.75;1.00;;;;;10.17;53.54;101589.31;5095440;27;45326;-71
2022/01/31 06:58:56;;;;;;;;;1.75;1.00;;;;;10.14;53.65;101599.75;5094050;27;45449;-71
2022/01/31 07:01:25;;;;;;;;;2.00;1.00;;;;;10.11;53.49;101584.00;5092762;27;45358;-71
2022/01/31 07:03:54;;;;;;;;;1.00;1.00;;;;;10.04;53.98;101572.53;5095445;27;46252;-72
2022/01/31 07:06:21;;;;;;;;;1.00;1.00;;;;;9.86;53.78;101570.44;5096157;27;45526;-72
2022/01/31 07:08:47;;;;;;;;;2.00;2.00;;;;;9.91;53.81;101592.34;5092783;27;45461;-71
2022/01/31 07:11:19;;;;;;;;;1.75;1.00;;;;;10.07;53.62;101621.44;5097672;27;45478;-72
2022/01/31 07:13:47;;;;;;;;;4.25;1.75;;;;;10.02;53.90;101597.78;5094070;27;46240;-72
2022/01/31 07:16:13;;;;;;;;;1.75;1.75;;;;;10.15;53.50;101617.19;5094122;27;45494;-71
2022/01/31 07:18:40;;;;;;;;;1.75;1.75;;;;;9.73;53.87;101558.00;5094456;27;45489;-72
2022/01/31 07:21:06;;;;;;;;;2.00;2.00;;;;;9.98;53.39;101604.69;5094125;27;45383;-71
2022/01/31 07:26:17;;;;;;;;;1.75;1.00;;;;;10.09;53.41;101646.78;5093843;27;45461;-71
2022/01/31 07:28:46;;;;;;;;;1.75;1.75;;;;;9.95;53.73;101609.88;5097422;27;45753;-71
2022/01/31 07:31:12;;;;;;;;;3.00;1.00;;;;;9.43;53.18;101525.19;5097640;27;45322;-71
2022/01/31 07:33:42;;;;;;;;;2.00;2.00;;;;;9.85;53.49;101588.75;5097171;27;45378;-71
2022/01/31 07:36:07;;;;;;;;;1.00;1.00;;;;;9.91;53.28;101613.28;5097365;27;45679;-74
2022/01/31 07:38:33;;;;;;;;;1.25;0.00;;;;;10.12;52.92;101635.47;5097569;27;45645;-72
2022/01/31 07:40:59;;;;;;;;;3.00;1.50;;;;;9.70;52.98;101552.69;5093327;27;45487;-72
2022/01/31 07:43:25;;;;;;;;;3.00;2.00;;;;;10.04;52.90;101613.53;5077524;28;45695;-72
2022/01/31 07:45:54;;;;;;;;;5.25;1.00;;;;;9.99;52.82;101613.44;5079626;27;45448;-72
2022/01/31 07:48:35;;;;;;;;;3.25;2.00;;;;;10.19;52.63;101638.22;5081743;27;45381;-73
2022/01/31 07:51:00;;;;;;;;;1.50;1.00;;;;;10.27;52.85;101653.19;5079484;27;45556;-71
2022/01/31 07:53:26;;;;;;;;;2.50;1.50;;;;;10.21;52.67;101651.34;5079457;27;45373;-73
2022/01/31 07:55:52;;;;;;;;;5.25;1.25;;;;;10.35;52.26;101654.25;5077368;27;45556;-71
2022/01/31 07:58:20;;;;;;;;;5.25;1.25;;;;;10.45;51.99;101656.16;5076918;27;45328;-73
2022/01/31 08:00:46;;;;;;;;;1.00;1.00;;;;;10.51;52.09;101671.09;5086082;27;45425;-74
2022/01/31 08:03:12;;;;;;;;;2.00;0.25;;;;;10.53;51.42;101674.63;5097352;27;46100;-74
2022/01/31 08:05:37;;;;;;;;;3.00;1.00;;;;;10.43;51.96;101660.50;5099143;27;45693;-74
2022/01/31 08:08:04;;;;;;;;;1.00;1.00;;;;;10.42;51.73;101661.38;5097028;27;45528;-73
2022/01/31 08:10:31;;;;;;;;;0.75;0.75;;;;;10.19;51.94;101638.22;5099657;27;45836;-73
2022/01/31 08:13:00;;;;;;;;;1.75;1.00;;;;;10.17;51.58;101633.81;5098884;27;45602;-71
2022/01/31 08:15:28;;;;;;;;;3.00;2.00;;;;;10.35;51.59;101643.78;5099142;27;45318;-71
2022/01/31 08:17:53;;;;;;;;;4.00;2.00;;;;;10.11;51.50;101597.94;5101838;27;45438;-74
2022/01/31 08:20:19;;;;;;;;;3.50;1.25;;;;;10.48;50.68;101658.84;5100503;27;45473;-73
2022/01/31 08:22:45;;;;;;;;;2.75;1.75;;;;;10.69;50.62;101673.16;5092064;27;45659;-72
2022/01/31 08:25:14;;;;;;;;;3.50;1.00;;;;;10.80;50.72;101693.44;5095352;27;45379;-73
2022/01/31 08:27:49;;;;;;;;;2.00;2.00;;;;;10.74;50.62;101690.69;5100684;27;45599;-77
2022/01/31 08:30:22;;;;;;;;;2.00;2.00;;;;;10.81;50.78;101691.69;5100537;27;45356;-72
2022/01/31 08:32:58;;;;;;;;;1.25;1.25;;;;;10.56;50.70;101653.75;5100584;27;45644;-71
2022/01/31 08:38:09;;;;;;;;;1.75;1.00;;;;;10.73;51.14;101690.69;5095449;27;45429;-73
2022/01/31 08:40:35;;;;;;;;;4.25;1.50;;;;;10.73;51.67;101690.69;5095824;27;45341;-73
2022/01/31 08:43:01;;;;;;;;;3.75;3.00;;;;;10.60;51.44;101673.88;5095732;27;45955;-74
2022/01/31 08:45:26;;;;;;;;;3.75;2.50;;;;;10.51;51.74;101653.66;5100416;27;45508;-72
2022/01/31 08:47:52;;;;;;;;;2.00;2.00;;;;;10.63;51.56;101673.03;5099326;27;45295;-71
2022/01/31 08:50:19;;;;;;;;;4.50;1.00;;;;;10.58;51.59;101679.09;5096785;27;45766;-71
2022/01/31 08:52:52;;;;;;;;;1.00;0.00;;;;;10.65;51.67;101723.72;5098452;27;45584;-75
2022/01/31 08:55:20;;;;;;;;;3.50;2.25;;;;;10.44;51.52;101678.00;5096650;27;45508;-73
2022/01/31 08:57:51;;;;;;;;;4.00;2.00;;;;;10.71;51.50;101743.06;5094676;27;45479;-72
2022/01/31 09:00:18;;;;;;;;;2.00;1.00;;;;;10.54;51.66;101708.72;5096701;27;45801;-71
2022/01/31 09:02:58;;;;;;;;;2.25;2.25;;;;;10.65;51.65;101719.38;5095343;27;47150;-72
2022/01/31 09:05:24;;;;;;;;;5.00;2.00;;;;;10.76;51.62;101709.09;5097763;27;45347;-73
2022/01/31 09:07:57;;;;;;;;;3.50;2.25;;;;;10.96;51.06;101720.78;5100223;27;45313;-72
2022/01/31 09:10:22;;;;;;;;;2.75;2.00;;;;;13.81;46.45;101705.31;5099889;27;45397;-72
2022/01/31 09:12:48;;;;;;;;;6.00;0.75;;;;;16.71;40.71;101676.63;5101076;27;45470;-72
2022/01/31 09:15:14;;;;;;;;;5.00;1.00;;;;;17.46;38.71;101655.59;5098928;27;46292;-72
2022/01/31 09:17:41;;;;;;;;;4.33;1.00;;;;;17.30;38.30;101669.03;5096027;27;45425;-71
2022/01/31 09:20:08;;;;;;;;;3.00;2.00;;;;;16.22;39.37;101645.25;5092377;27;45379;-72
2022/01/31 09:22:34;;;;;;;;;4.33;1.33;;;;;15.50;40.37;101663.25;5094695;27;45804;-71
2022/01/31 09:25:00;;;;;;;;;2.00;1.00;;;;;15.02;40.00;101547.28;5099623;27;45450;-71
2022/01/31 09:27:27;;;;;;;;;2.00;1.00;;;;;16.89;38.24;101637.69;5099913;27;45597;-71
2022/01/31 09:29:54;;;;;;;;;2.00;1.00;;;;;17.31;36.73;101627.53;5098270;27;45516;-71
2022/01/31 09:32:24;;;;;;;;;2.00;1.00;;;;;16.32;37.59;101628.47;5095347;27;45439;-72
2022/01/31 09:34:57;;;;;;;;;1.33;1.00;;;;;15.55;39.16;101643.84;5099306;27;45380;-71
2022/01/31 09:37:33;;;;;;;;;4.00;2.00;;;;;16.62;39.08;101707.56;5113721;27;45531;-71
2022/01/31 09:40:03;;;;;;;;;1.00;1.00;;;;;16.95;36.79;101627.06;5100362;27;45570;-74
2022/01/31 09:42:40;;;;;;;;;1.00;1.00;;;;;19.77;34.07;101655.41;5102480;27;46484;-71
2022/01/31 09:45:13;;;;;;;;;3.33;3.00;;;;;22.52;29.71;101651.50;5101758;27;45840;-73
2022/01/31 09:50:27;;;;;;;;;3.00;1.67;;;;;24.12;26.52;101649.25;5102988;27;45590;-72
2022/01/31 09:52:56;;;;;;;;;3.00;3.00;;;;;22.91;27.58;101656.41;5100046;27;45793;-74
2022/01/31 09:55:38;;;;;;;;;1.67;1.67;;;;;20.85;29.85;101664.38;5097598;27;45384;-71
2022/01/31 09:58:08;;;;;;;;;4.00;2.00;;;;;19.03;31.88;101644.44;5087675;27;45573;-73
2022/01/31 10:00:34;;;;;;;;;2.67;2.00;;;;;18.34;33.95;101681.84;5078949;28;45552;-72
2022/01/31 10:03:08;;;;;;;;;3.00;1.33;;;;;17.21;34.76;101681.50;5079495;27;45282;-73
2022/01/31 10:05:34;;;;;;;;;1.00;1.00;;;;;15.90;35.77;101600.56;5076648;27;45720;-73
2022/01/31 10:08:14;;;;;;;;;4.00;1.67;;;;;15.68;37.21;101703.66;5074565;27;45304;-72
2022/01/31 10:10:44;;;;;;;;;1.00;0.00;;;;;15.32;38.18;101703.75;5077870;27;45424;-71
2022/01/31 10:16:27;;;;;;;;;4.00;1.33;;;;;20.81;29.91;101687.56;5074503;28;46362;-71
2022/01/31 10:19:06;;;;;;;;;3.67;2.33;;;;;24.11;26.07;101693.00;5078427;27;45359;-71
2022/01/31 10:21:52;;;;;;;;;1.67;1.67;;;;;26.29;23.24;101697.84;5077797;28;45642;-71
2022/01/31 10:24:19;;;;;;;;;3.67;0.33;;;;;27.96;21.07;101664.09;5073148;28;45685;-71
2022/01/31 10:26:45;;;;;;;;;4.33;2.00;;;;;27.58;22.38;101579.13;5076740;27;45407;-72
2022/01/31 10:29:17;;;;;;;;;2.00;1.00;;;;;27.37;20.96;101682.53;5077497;28;45475;-71
2022/01/31 10:32:07;;;;;;;;;0.33;0.33;;;;;26.10;21.96;101607.47;5079040;27;45402;-71
2022/01/31 10:34:36;;;;;;;;;1.33;1.33;;;;;25.86;22.51;101692.69;5077141;28;47052;-71
2022/01/31 10:37:09;;;;;;;;;1.00;1.00;;;;;23.39;25.02;101698.38;5094454;27;45450;-72
2022/01/31 10:45:43;;;;;;;;;3.00;1.00;;;;;18.56;32.37;101698.31;5095017;27;45820;-70
2022/01/31 10:56:25;;;;;;;;;4.00;1.00;;;;;23.48;27.05;101739.94;5087363;27;45898;-73
2022/01/31 10:59:01;;;;;;;;;2.67;1.33;;;;;26.05;23.05;101655.13;5074602;27;45365;-71
2022/01/31 11:01:27;;;;;;;;;3.33;1.33;;;;;28.15;21.77;101723.16;5095825;27;45547;-71
2022/01/31 11:03:54;;;;;;;;;2.67;1.67;;;;;28.73;20.67;101738.69;5096508;27;45807;-72
2022/01/31 11:06:23;;;;;;;;;2.00;2.00;;;;;27.52;21.43;101715.81;5100260;27;46296;-71
2022/01/31 11:08:50;;;;;;;;;2.00;1.00;;;;;25.12;24.30;101729.97;5105599;27;45465;-72
2022/01/31 11:11:16;;;;;;;;;2.00;0.67;;;;;24.62;24.28;101746.34;5097109;27;45438;-73
2022/01/31 11:13:42;;;;;;;;;3.00;1.33;;;;;25.72;22.19;101720.16;5099395;27;45582;-73
2022/01/31 11:16:08;;;;;;;;;0.00;0.00;;;;;23.60;23.40;101620.97;5098706;27;45693;-73
2022/01/31 11:18:36;;;;;;;;;2.33;1.00;;;;;22.13;26.99;101733.69;5101737;27;45637;-75
2022/01/31 11:21:07;;;;;;;;;3.00;0.00;;;;;20.49;28.17;101730.91;5118066;27;45354;-74
2022/01/31 11:23:38;;;;;;;;;3.00;1.00;;;;;19.40;30.35;101731.38;5102457;27;45431;-74
2022/01/31 11:26:10;;;;;;;;;2.00;1.00;;;;;22.61;26.05;101731.31;5100865;27;45653;-75
2022/01/31 11:28:40;;;;;;;;;2.67;1.00;;;;;22.68;25.23;101715.94;5097517;27;45292;-74
2022/01/31 11:31:07;;;;;;;;;2.00;1.00;;;;;20.81;26.86;101707.97;5098483;27;45414;-72
2022/01/31 11:33:35;;;;;;;;;2.33;1.00;;;;;19.38;28.24;101724.34;5097774;27;45389;-72
2022/01/31 11:36:02;;;;;;;;;4.00;3.00;;;;;18.30;30.64;101752.63;5101244;27;45583;-72
2022/01/31 11:38:29;;;;;;;;;1.67;1.33;;;;;17.35;32.25;101716.66;5097630;27;45372;-72
2022/01/31 11:41:02;;;;;;;;;5.33;1.00;;;;;16.10;33.80;101622.44;5096876;27;45506;-72
2022/01/31 11:43:31;;;;;;;;;1.00;1.00;;;;;16.19;34.32;101703.44;5097710;27;45786;-74
2022/01/31 11:46:00;;;;;;;;;3.00;2.00;;;;;15.96;35.61;101707.97;5096219;27;46205;-73
2022/01/31 11:48:29;;;;;;;;;3.33;1.67;;;;;17.51;33.97;101717.34;5112639;27;45517;-72
2022/01/31 11:50:59;;;;;;;;;1.67;1.33;;;;;18.99;31.48;101742.75;5100578;27;45501;-72
2022/01/31 11:53:37;;;;;;;;;2.33;2.33;;;;;17.99;31.75;101628.44;5097245;27;45562;-71
2022/01/31 11:56:24;;;;;;;;;4.00;3.00;;;;;17.06;33.47;101709.88;5097229;27;46377;-72
2022/01/31 11:58:58;;;;;;;;;2.00;2.00;;;;;16.42;34.97;101760.56;5097357;27;45562;-72
2022/01/31 12:01:31;;;;;;;;;4.00;3.33;;;;;15.69;36.10;101776.72;5101568;27;45607;-71
2022/01/31 12:03:59;;;;;;;;;2.00;1.00;;;;;15.23;39.37;101832.22;5097754;27;45608;-72